sensor_id;sensor_type;location;lat;lon;timestamp;pressure;altitude;pressure_sealevel;temperature;humidity
15382;BME280;7789;51.364;12.358;2022-08-01T00:05:09;100068.19;;;22.71;75.18
15382;BME280;7789;51.364;12.358;2022-08-01T00:10:19;100067.59;;;22.69;75.04
15382;BME280;7789;51.364;12.358;2022-08-01T00:15:48;100069.41;;;22.68;75.76
15382;BME280;7789;51.364;12.358;2022-08-01T00:21:01;100069.84;;;22.66;75.59
15382;BME280;7789;51.364;12.358;2022-08-01T00:26:11;100070.06;;;22.64;76.05
15382;BME280;7789;51.364;12.358;2022-08-01T00:31:22;100069.03;;;22.65;76.88
15382;BME280;7789;51.364;12.358;2022-08-01T00:36:29;100066.56;;;22.64;77.01
15382;BME280;7789;51.364;12.358;2022-08-01T00:41:42;100060.22;;;22.65;76.95
15382;BME280;7789;51.364;12.358;2022-08-01T00:47:04;100063.91;;;22.64;77.63
15382;BME280;7789;51.364;12.358;2022-08-01T00:52:16;100064.75;;;22.58;77.42
15382;BME280;7789;51.364;12.358;2022-08-01T00:57:50;100060.84;;;22.54;77.62
15382;BME280;7789;51.364;12.358;2022-08-01T01:03:08;100058.00;;;22.49;77.96
15382;BME280;7789;51.364;12.358;2022-08-01T01:08:42;100063.16;;;22.44;78.82
15382;BME280;7789;51.364;12.358;2022-08-01T01:13:57;100067.25;;;22.40;79.00
15382;BME280;7789;51.364;12.358;2022-08-01T01:19:30;100051.66;;;22.43;79.67
15382;BME280;7789;51.364;12.358;2022-08-01T01:24:46;100063.56;;;22.41;79.00
15382;BME280;7789;51.364;12.358;2022-08-01T01:30:31;100052.91;;;22.41;78.91
15382;BME280;7789;51.364;12.358;2022-08-01T01:35:49;100056.59;;;22.40;78.57
15382;BME280;7789;51.364;12.358;2022-08-01T01:41:00;100057.63;;;22.39;78.32
15382;BME280;7789;51.364;12.358;2022-08-01T01:46:21;100054.13;;;22.38;78.71
15382;BME280;7789;51.364;12.358;2022-08-01T01:51:27;100056.59;;;22.40;78.22
15382;BME280;7789;51.364;12.358;2022-08-01T01:56:46;100056.78;;;22.38;78.10
15382;BME280;7789;51.364;12.358;2022-08-01T02:02:14;100056.97;;;22.37;78.14
15382;BME280;7789;51.364;12.358;2022-08-01T02:07:25;100059.00;;;22.35;78.35
15382;BME280;7789;51.364;12.358;2022-08-01T02:12:36;100064.78;;;22.32;78.61
15382;BME280;7789;51.364;12.358;2022-08-01T02:17:49;100068.47;;;22.24;78.47
15382;BME280;7789;51.364;12.358;2022-08-01T02:23:04;100068.69;;;22.16;78.59
15382;BME280;7789;51.364;12.358;2022-08-01T02:28:23;100067.66;;;22.17;78.90
15382;BME280;7789;51.364;12.358;2022-08-01T02:33:40;100064.41;;;22.15;79.90
15382;BME280;7789;51.364;12.358;2022-08-01T02:38:51;100063.78;;;22.13;79.52
15382;BME280;7789;51.364;12.358;2022-08-01T02:44:05;100068.50;;;22.05;79.29
15382;BME280;7789;51.364;12.358;2022-08-01T02:49:36;100072.16;;;22.04;80.25
15382;BME280;7789;51.364;12.358;2022-08-01T02:54:55;100074.44;;;22.00;80.36
15382;BME280;7789;51.364;12.358;2022-08-01T03:00:05;100061.94;;;22.01;80.93
15382;BME280;7789;51.364;12.358;2022-08-01T03:05:28;100075.84;;;22.03;80.94
15382;BME280;7789;51.364;12.358;2022-08-01T03:10:44;100076.50;;;22.05;81.48
15382;BME280;7789;51.364;12.358;2022-08-01T03:16:01;100083.47;;;21.99;81.45
15382;BME280;7789;51.364;12.358;2022-08-01T03:21:18;100089.59;;;22.00;82.75
15382;BME280;7789;51.364;12.358;2022-08-01T03:26:37;100093.28;;;21.99;82.85
15382;BME280;7789;51.364;12.358;2022-08-01T03:32:09;100098.41;;;22.00;85.24
15382;BME280;7789;51.364;12.358;2022-08-01T03:37:38;100095.94;;;21.99;86.39
15382;BME280;7789;51.364;12.358;2022-08-01T03:43:16;100095.53;;;21.95;85.70
15382;BME280;7789;51.364;12.358;2022-08-01T03:48:30;100091.88;;;21.96;87.11
15382;BME280;7789;51.364;12.358;2022-08-01T03:54:05;100103.31;;;21.97;87.41
15382;BME280;7789;51.364;12.358;2022-08-01T03:59:26;100096.16;;;21.97;87.44
15382;BME280;7789;51.364;12.358;2022-08-01T04:04:38;100103.13;;;21.98;87.84
15382;BME280;7789;51.364;12.358;2022-08-01T04:09:48;100104.53;;;22.01;88.43
15382;BME280;7789;51.364;12.358;2022-08-01T04:14:54;100113.38;;;22.01;88.61
15382;BME280;7789;51.364;12.358;2022-08-01T04:20:09;100112.13;;;22.04;89.01
15382;BME280;7789;51.364;12.358;2022-08-01T04:25:24;100120.09;;;22.10;89.30
15382;BME280;7789;51.364;12.358;2022-08-01T04:30:38;100120.09;;;22.10;89.30
15382;BME280;7789;51.364;12.358;2022-08-01T04:35:52;100120.94;;;22.11;89.62
15382;BME280;7789;51.364;12.358;2022-08-01T04:41:20;100129.13;;;22.16;90.00
15382;BME280;7789;51.364;12.358;2022-08-01T04:46:29;100132.81;;;22.15;90.28
15382;BME280;7789;51.364;12.358;2022-08-01T04:51:51;100138.56;;;22.18;91.48
15382;BME280;7789;51.364;12.358;2022-08-01T04:57:03;100138.56;;;22.18;90.61
15382;BME280;7789;51.364;12.358;2022-08-01T05:02:13;100143.66;;;22.20;91.70
15382;BME280;7789;51.364;12.358;2022-08-01T05:07:30;100132.00;;;22.21;92.87
15382;BME280;7789;51.364;12.358;2022-08-01T05:12:48;100136.94;;;22.24;92.77
15382;BME280;7789;51.364;12.358;2022-08-01T05:18:00;100130.75;;;22.30;92.79
15382;BME280;7789;51.364;12.358;2022-08-01T05:23:08;100133.03;;;22.39;92.42
15382;BME280;7789;51.364;12.358;2022-08-01T05:28:34;100141.22;;;22.51;92.89
15382;BME280;7789;51.364;12.358;2022-08-01T05:33:41;100142.81;;;22.77;91.50
15382;BME280;7789;51.364;12.358;2022-08-01T05:38:48;100146.81;;;23.19;90.81
15382;BME280;7789;51.364;12.358;2022-08-01T05:44:08;100136.97;;;25.03;82.57
15382;BME280;7789;51.364;12.358;2022-08-01T05:49:14;100145.41;;;24.82;82.50
15382;BME280;7789;51.364;12.358;2022-08-01T05:54:20;100150.63;;;24.95;81.52
15382;BME280;7789;51.364;12.358;2022-08-01T05:59:29;100142.59;;;24.95;80.92
15382;BME280;7789;51.364;12.358;2022-08-01T06:04:36;100135.63;;;24.94;82.01
15382;BME280;7789;51.364;12.358;2022-08-01T06:09:42;100140.69;;;25.02;80.31
15382;BME280;7789;51.364;12.358;2022-08-01T06:14:55;100149.56;;;25.14;79.63
15382;BME280;7789;51.364;12.358;2022-08-01T06:20:02;100141.78;;;25.13;79.94
15382;BME280;7789;51.364;12.358;2022-08-01T06:25:19;100149.44;;;25.09;80.21
15382;BME280;7789;51.364;12.358;2022-08-01T06:30:38;100162.97;;;24.96;80.28
15382;BME280;7789;51.364;12.358;2022-08-01T06:35:47;100163.78;;;24.97;79.87
15382;BME280;7789;51.364;12.358;2022-08-01T06:41:03;100159.25;;;24.97;79.74
15382;BME280;7789;51.364;12.358;2022-08-01T06:46:09;100161.19;;;25.08;80.22
15382;BME280;7789;51.364;12.358;2022-08-01T06:51:13;100170.28;;;25.25;79.89
15382;BME280;7789;51.364;12.358;2022-08-01T06:56:20;100177.75;;;25.53;78.67
15382;BME280;7789;51.364;12.358;2022-08-01T07:01:31;100179.97;;;25.56;78.09
15382;BME280;7789;51.364;12.358;2022-08-01T07:06:38;100175.53;;;25.50;78.52
15382;BME280;7789;51.364;12.358;2022-08-01T07:11:52;100177.06;;;25.28;79.29
15382;BME280;7789;51.364;12.358;2022-08-01T07:17:21;100176.81;;;25.29;78.91
15382;BME280;7789;51.364;12.358;2022-08-01T07:22:29;100173.72;;;25.44;78.12
15382;BME280;7789;51.364;12.358;2022-08-01T07:27:38;100165.13;;;25.89;76.54
15382;BME280;7789;51.364;12.358;2022-08-01T07:32:51;100165.13;;;25.89;76.33
15382;BME280;7789;51.364;12.358;2022-08-01T07:37:56;100186.78;;;25.70;75.68
15382;BME280;7789;51.364;12.358;2022-08-01T07:43:04;100196.91;;;25.38;77.37
15382;BME280;7789;51.364;12.358;2022-08-01T07:48:11;100201.59;;;25.00;83.19
15382;BME280;7789;51.364;12.358;2022-08-01T07:53:19;100200.41;;;24.78;85.62
15382;BME280;7789;51.364;12.358;2022-08-01T07:58:29;100202.94;;;24.73;87.69
15382;BME280;7789;51.364;12.358;2022-08-01T08:04:03;100204.66;;;24.86;90.14
15382;BME280;7789;51.364;12.358;2022-08-01T08:09:08;100207.88;;;25.12;87.59
15382;BME280;7789;51.364;12.358;2022-08-01T08:14:33;100197.63;;;25.45;86.80
15382;BME280;7789;51.364;12.358;2022-08-01T08:19:41;100200.84;;;25.65;87.12
15382;BME280;7789;51.364;12.358;2022-08-01T08:24:56;100199.63;;;26.09;85.29
15382;BME280;7789;51.364;12.358;2022-08-01T08:30:12;100184.53;;;26.37;85.66
15382;BME280;7789;51.364;12.358;2022-08-01T08:35:41;100194.09;;;26.45;83.34
15382;BME280;7789;51.364;12.358;2022-08-01T08:41:00;100189.03;;;26.55;82.31
15382;BME280;7789;51.364;12.358;2022-08-01T08:46:08;100213.06;;;26.50;80.51
15382;BME280;7789;51.364;12.358;2022-08-01T08:51:39;100208.28;;;26.52;79.88
15382;BME280;7789;51.364;12.358;2022-08-01T08:57:06;100217.47;;;26.56;76.56
15382;BME280;7789;51.364;12.358;2022-08-01T09:02:16;100207.00;;;26.66;78.02
15382;BME280;7789;51.364;12.358;2022-08-01T09:07:35;100214.56;;;26.91;75.86
15382;BME280;7789;51.364;12.358;2022-08-01T09:13:04;100224.38;;;26.74;75.79
15382;BME280;7789;51.364;12.358;2022-08-01T09:18:30;100229.28;;;26.77;73.22
15382;BME280;7789;51.364;12.358;2022-08-01T09:23:41;100231.63;;;26.85;70.26
15382;BME280;7789;51.364;12.358;2022-08-01T09:29:07;100230.81;;;27.19;71.31
15382;BME280;7789;51.364;12.358;2022-08-01T09:34:42;100234.28;;;27.20;71.32
15382;BME280;7789;51.364;12.358;2022-08-01T09:39:58;100254.03;;;27.02;70.05
15382;BME280;7789;51.364;12.358;2022-08-01T09:45:33;100265.00;;;26.89;69.44
15382;BME280;7789;51.364;12.358;2022-08-01T09:50:48;100258.09;;;27.05;69.07
15382;BME280;7789;51.364;12.358;2022-08-01T09:56:08;100260.44;;;27.36;67.38
15382;BME280;7789;51.364;12.358;2022-08-01T10:01:23;100260.22;;;27.14;68.86
15382;BME280;7789;51.364;12.358;2022-08-01T10:06:52;100259.06;;;27.10;67.57
15382;BME280;7789;51.364;12.358;2022-08-01T10:12:20;100266.03;;;27.00;68.51
15382;BME280;7789;51.364;12.358;2022-08-01T10:17:27;100251.66;;;26.94;66.78
15382;BME280;7789;51.364;12.358;2022-08-01T10:22:55;100249.34;;;27.21;66.71
15382;BME280;7789;51.364;12.358;2022-08-01T10:28:16;100248.53;;;27.32;65.09
15382;BME280;7789;51.364;12.358;2022-08-01T10:33:34;100237.78;;;27.32;63.79
15382;BME280;7789;51.364;12.358;2022-08-01T10:38:55;100244.94;;;27.66;62.09
15382;BME280;7789;51.364;12.358;2022-08-01T10:44:07;100237.59;;;28.01;61.92
15382;BME280;7789;51.364;12.358;2022-08-01T10:49:15;100241.34;;;28.16;60.40
15382;BME280;7789;51.364;12.358;2022-08-01T10:54:25;100234.69;;;28.19;59.25
15382;BME280;7789;51.364;12.358;2022-08-01T10:59:47;100241.34;;;28.16;60.50
15382;BME280;7789;51.364;12.358;2022-08-01T11:05:17;100229.59;;;28.06;59.54
15382;BME280;7789;51.364;12.358;2022-08-01T11:10:38;100242.25;;;28.05;58.64
15382;BME280;7789;51.364;12.358;2022-08-01T11:16:29;100240.13;;;28.35;57.68
15382;BME280;7789;51.364;12.358;2022-08-01T11:22:00;100237.75;;;28.39;57.56
15382;BME280;7789;51.364;12.358;2022-08-01T11:27:27;100236.69;;;28.56;56.82
15382;BME280;7789;51.364;12.358;2022-08-01T11:33:14;100241.19;;;28.51;57.29
15382;BME280;7789;51.364;12.358;2022-08-01T11:38:24;100250.47;;;28.60;56.43
15382;BME280;7789;51.364;12.358;2022-08-01T11:43:56;100259.69;;;28.80;54.13
15382;BME280;7789;51.364;12.358;2022-08-01T11:55:18;100270.22;;;28.65;58.49
15382;BME280;7789;51.364;12.358;2022-08-01T12:00:37;100271.44;;;28.74;58.91
15382;BME280;7789;51.364;12.358;2022-08-01T12:05:48;100256.94;;;28.75;58.63
15382;BME280;7789;51.364;12.358;2022-08-01T12:11:31;100258.72;;;28.70;57.14
15382;BME280;7789;51.364;12.358;2022-08-01T12:16:55;100259.38;;;28.60;56.30
15382;BME280;7789;51.364;12.358;2022-08-01T12:22:23;100272.22;;;28.42;56.69
15382;BME280;7789;51.364;12.358;2022-08-01T12:27:39;100266.69;;;28.32;56.90
15382;BME280;7789;51.364;12.358;2022-08-01T12:32:50;100263.50;;;28.07;57.60
15382;BME280;7789;51.364;12.358;2022-08-01T12:38:17;100267.09;;;28.12;57.71
15382;BME280;7789;51.364;12.358;2022-08-01T12:44:17;100267.16;;;28.29;56.74
15382;BME280;7789;51.364;12.358;2022-08-01T12:49:29;100265.81;;;28.15;57.16
15382;BME280;7789;51.364;12.358;2022-08-01T12:55:11;100266.81;;;28.25;56.50
15382;BME280;7789;51.364;12.358;2022-08-01T13:00:31;100268.25;;;28.16;56.93
15382;BME280;7789;51.364;12.358;2022-08-01T13:05:53;100270.94;;;28.16;57.24
15382;BME280;7789;51.364;12.358;2022-08-01T13:11:06;100273.13;;;28.03;57.21
15382;BME280;7789;51.364;12.358;2022-08-01T13:16:21;100267.56;;;27.93;57.66
15382;BME280;7789;51.364;12.358;2022-08-01T13:21:56;100265.81;;;27.87;57.16
15382;BME280;7789;51.364;12.358;2022-08-01T13:27:07;100268.97;;;27.84;57.23
15382;BME280;7789;51.364;12.358;2022-08-01T13:32:41;100277.63;;;27.86;58.35
15382;BME280;7789;51.364;12.358;2022-08-01T13:37:58;100282.06;;;27.92;57.60
15382;BME280;7789;51.364;12.358;2022-08-01T13:43:35;100273.75;;;27.93;56.42
15382;BME280;7789;51.364;12.358;2022-08-01T13:49:06;100267.72;;;28.03;56.88
15382;BME280;7789;51.364;12.358;2022-08-01T13:54:17;100275.38;;;27.94;56.34
15382;BME280;7789;51.364;12.358;2022-08-01T13:59:23;100283.69;;;27.93;56.64
15382;BME280;7789;51.364;12.358;2022-08-01T14:04:29;100281.72;;;27.88;55.89
15382;BME280;7789;51.364;12.358;2022-08-01T14:09:55;100299.03;;;27.81;55.06
15382;BME280;7789;51.364;12.358;2022-08-01T14:15:21;100280.88;;;27.88;55.36
15382;BME280;7789;51.364;12.358;2022-08-01T14:20:51;100287.00;;;27.83;55.48
15382;BME280;7789;51.364;12.358;2022-08-01T14:26:08;100286.88;;;27.78;56.44
15382;BME280;7789;51.364;12.358;2022-08-01T14:31:44;100297.63;;;27.78;55.90
15382;BME280;7789;51.364;12.358;2022-08-01T14:37:18;100295.78;;;27.67;56.11
15382;BME280;7789;51.364;12.358;2022-08-01T14:42:31;100289.50;;;27.50;55.67
15382;BME280;7789;51.364;12.358;2022-08-01T14:47:43;100296.97;;;27.48;55.22
15382;BME280;7789;51.364;12.358;2022-08-01T14:53:06;100296.06;;;27.43;55.53
15382;BME280;7789;51.364;12.358;2022-08-01T14:58:13;100293.72;;;27.35;55.11
15382;BME280;7789;51.364;12.358;2022-08-01T15:03:20;100310.31;;;27.20;55.56
15382;BME280;7789;51.364;12.358;2022-08-01T15:08:55;100299.69;;;27.14;55.24
15382;BME280;7789;51.364;12.358;2022-08-01T15:14:00;100304.34;;;27.07;56.05
15382;BME280;7789;51.364;12.358;2022-08-01T15:19:26;100310.25;;;26.97;56.61
15382;BME280;7789;51.364;12.358;2022-08-01T15:24:35;100310.16;;;26.92;56.93
15382;BME280;7789;51.364;12.358;2022-08-01T15:29:42;100308.16;;;26.88;57.18
15382;BME280;7789;51.364;12.358;2022-08-01T15:34:52;100308.97;;;26.77;56.36
15382;BME280;7789;51.364;12.358;2022-08-01T15:40:02;100304.03;;;26.63;55.41
15382;BME280;7789;51.364;12.358;2022-08-01T15:45:11;100298.34;;;26.59;56.99
15382;BME280;7789;51.364;12.358;2022-08-01T15:50:40;100294.59;;;26.49;56.98
15382;BME280;7789;51.364;12.358;2022-08-01T15:56:01;100297.66;;;26.46;56.23
15382;BME280;7789;51.364;12.358;2022-08-01T16:01:23;100299.41;;;26.40;56.34
15382;BME280;7789;51.364;12.358;2022-08-01T16:06:44;100306.16;;;26.43;57.25
15382;BME280;7789;51.364;12.358;2022-08-01T16:11:58;100303.38;;;26.38;57.31
15382;BME280;7789;51.364;12.358;2022-08-01T16:17:33;100308.28;;;26.41;56.99
15382;BME280;7789;51.364;12.358;2022-08-01T16:22:48;100298.47;;;26.35;56.66
15382;BME280;7789;51.364;12.358;2022-08-01T16:28:18;100309.28;;;26.28;56.72
15382;BME280;7789;51.364;12.358;2022-08-01T16:33:37;100311.00;;;26.23;56.97
15382;BME280;7789;51.364;12.358;2022-08-01T16:39:07;100309.38;;;26.22;56.25
15382;BME280;7789;51.364;12.358;2022-08-01T16:44:35;100307.16;;;26.19;57.01
15382;BME280;7789;51.364;12.358;2022-08-01T16:49:43;100308.53;;;26.21;57.00
15382;BME280;7789;51.364;12.358;2022-08-01T17:00:54;100312.59;;;26.12;57.77
15382;BME280;7789;51.364;12.358;2022-08-01T17:06:41;100313.88;;;26.10;57.74
15382;BME280;7789;51.364;12.358;2022-08-01T17:11:58;100314.19;;;26.02;57.45
15382;BME280;7789;51.364;12.358;2022-08-01T17:17:20;100302.72;;;25.95;58.47
15382;BME280;7789;51.364;12.358;2022-08-01T17:22:28;100319.13;;;25.87;58.39
15382;BME280;7789;51.364;12.358;2022-08-01T17:27:37;100320.22;;;25.79;59.01
15382;BME280;7789;51.364;12.358;2022-08-01T17:32:45;100323.81;;;25.73;58.03
15382;BME280;7789;51.364;12.358;2022-08-01T17:37:59;100324.66;;;25.67;57.85
15382;BME280;7789;51.364;12.358;2022-08-01T17:43:09;100330.34;;;25.59;59.21
15382;BME280;7789;51.364;12.358;2022-08-01T17:48:15;100330.47;;;25.46;59.23
15382;BME280;7789;51.364;12.358;2022-08-01T17:53:23;100328.31;;;25.37;60.11
15382;BME280;7789;51.364;12.358;2022-08-01T17:58:28;100340.97;;;25.30;60.17
15382;BME280;7789;51.364;12.358;2022-08-01T18:03:58;100343.91;;;25.22;59.65
15382;BME280;7789;51.364;12.358;2022-08-01T18:09:11;100340.66;;;25.13;59.84
15382;BME280;7789;51.364;12.358;2022-08-01T18:14:29;100347.53;;;25.03;60.54
15382;BME280;7789;51.364;12.358;2022-08-01T18:19:53;100343.53;;;24.94;60.70
15382;BME280;7789;51.364;12.358;2022-08-01T18:25:05;100340.28;;;24.85;61.11
15382;BME280;7789;51.364;12.358;2022-08-01T18:30:16;100342.41;;;24.77;62.19
15382;BME280;7789;51.364;12.358;2022-08-01T18:35:28;100361.19;;;24.71;62.76
15382;BME280;7789;51.364;12.358;2022-08-01T18:41:05;100361.03;;;24.59;62.83
15382;BME280;7789;51.364;12.358;2022-08-01T18:46:31;100371.81;;;24.53;62.88
15382;BME280;7789;51.364;12.358;2022-08-01T18:51:43;100373.88;;;24.44;63.35
15382;BME280;7789;51.364;12.358;2022-08-01T18:57:00;100383.16;;;24.35;63.86
15382;BME280;7789;51.364;12.358;2022-08-01T19:02:11;100385.91;;;24.22;63.88
15382;BME280;7789;51.364;12.358;2022-08-01T19:07:24;100400.53;;;24.13;63.96
15382;BME280;7789;51.364;12.358;2022-08-01T19:13:03;100405.94;;;24.00;64.47
15382;BME280;7789;51.364;12.358;2022-08-01T19:18:29;100410.28;;;23.88;65.48
15382;BME280;7789;51.364;12.358;2022-08-01T19:23:41;100415.63;;;23.75;65.57
15382;BME280;7789;51.364;12.358;2022-08-01T19:29:08;100425.31;;;23.63;65.93
15382;BME280;7789;51.364;12.358;2022-08-01T19:34:50;100434.16;;;23.51;66.04
15382;BME280;7789;51.364;12.358;2022-08-01T19:40:27;100441.75;;;23.41;66.75
15382;BME280;7789;51.364;12.358;2022-08-01T19:45:35;100444.22;;;23.29;66.58
15382;BME280;7789;51.364;12.358;2022-08-01T19:50:51;100447.06;;;23.21;67.17
15382;BME280;7789;51.364;12.358;2022-08-01T19:56:08;100447.06;;;23.15;67.77
15382;BME280;7789;51.364;12.358;2022-08-01T20:01:17;100469.00;;;23.10;68.46
15382;BME280;7789;51.364;12.358;2022-08-01T20:06:31;100464.47;;;23.04;69.88
15382;BME280;7789;51.364;12.358;2022-08-01T20:11:45;100463.84;;;22.96;70.09
15382;BME280;7789;51.364;12.358;2022-08-01T20:16:53;100474.09;;;22.86;70.39
15382;BME280;7789;51.364;12.358;2022-08-01T20:22:03;100478.59;;;22.85;69.98
15382;BME280;7789;51.364;12.358;2022-08-01T20:27:30;100492.97;;;22.91;71.07
15382;BME280;7789;51.364;12.358;2022-08-01T20:32:38;100492.16;;;22.90;70.84
15382;BME280;7789;51.364;12.358;2022-08-01T20:37:52;100495.84;;;22.89;70.42
15382;BME280;7789;51.364;12.358;2022-08-01T20:43:14;100495.22;;;22.81;70.00
15382;BME280;7789;51.364;12.358;2022-08-01T20:48:30;100503.19;;;22.74;70.17
15382;BME280;7789;51.364;12.358;2022-08-01T20:53:50;100507.66;;;22.67;70.47
15382;BME280;7789;51.364;12.358;2022-08-01T20:59:17;100516.66;;;22.60;70.13
15382;BME280;7789;51.364;12.358;2022-08-01T21:05:02;100510.88;;;22.50;70.03
15382;BME280;7789;51.364;12.358;2022-08-01T21:10:14;100512.06;;;22.41;70.96
15382;BME280;7789;51.364;12.358;2022-08-01T21:15:59;100511.19;;;22.34;72.06
15382;BME280;7789;51.364;12.358;2022-08-01T21:21:33;100509.06;;;22.23;72.41
15382;BME280;7789;51.364;12.358;2022-08-01T21:26:51;100519.28;;;22.13;72.38
15382;BME280;7789;51.364;12.358;2022-08-01T21:32:17;100524.75;;;22.05;72.72
15382;BME280;7789;51.364;12.358;2022-08-01T21:37:38;100524.91;;;21.97;72.65
15382;BME280;7789;51.364;12.358;2022-08-01T21:43:13;100529.16;;;21.92;73.62
15382;BME280;7789;51.364;12.358;2022-08-01T21:48:24;100527.66;;;21.83;73.51
15382;BME280;7789;51.364;12.358;2022-08-01T21:53:38;100535.56;;;21.76;74.16
15382;BME280;7789;51.364;12.358;2022-08-01T21:59:03;100527.75;;;21.68;74.89
15382;BME280;7789;51.364;12.358;2022-08-01T22:04:24;100523.19;;;21.62;74.96
15382;BME280;7789;51.364;12.358;2022-08-01T22:09:32;100533.53;;;21.57;74.43
15382;BME280;7789;51.364;12.358;2022-08-01T22:14:41;100535.34;;;21.50;75.39
15382;BME280;7789;51.364;12.358;2022-08-01T22:20:00;100539.41;;;21.46;75.63
15382;BME280;7789;51.364;12.358;2022-08-01T22:25:09;100537.47;;;21.40;75.55
15382;BME280;7789;51.364;12.358;2022-08-01T22:30:21;100535.78;;;21.33;75.88
15382;BME280;7789;51.364;12.358;2022-08-01T22:35:34;100541.69;;;21.28;76.27
15382;BME280;7789;51.364;12.358;2022-08-01T22:40:53;100547.75;;;21.22;76.53
15382;BME280;7789;51.364;12.358;2022-08-01T22:46:23;100547.34;;;21.25;76.10
15382;BME280;7789;51.364;12.358;2022-08-01T22:51:54;100556.25;;;21.32;76.69
15382;BME280;7789;51.364;12.358;2022-08-01T22:57:03;100564.47;;;21.37;76.27
15382;BME280;7789;51.364;12.358;2022-08-01T23:02:18;100574.56;;;21.42;76.31
15382;BME280;7789;51.364;12.358;2022-08-01T23:07:55;100575.00;;;21.45;76.16
15382;BME280;7789;51.364;12.358;2022-08-01T23:13:19;100567.66;;;21.47;76.05
15382;BME280;7789;51.364;12.358;2022-08-01T23:18:28;100572.59;;;21.50;75.97
15382;BME280;7789;51.364;12.358;2022-08-01T23:23:50;100567.06;;;21.52;75.92
15382;BME280;7789;51.364;12.358;2022-08-01T23:29:19;100562.41;;;21.54;75.50
15382;BME280;7789;51.364;12.358;2022-08-01T23:34:32;100551.09;;;21.52;75.47
15382;BME280;7789;51.364;12.358;2022-08-01T23:39:42;100556.81;;;21.49;75.84
15382;BME280;7789;51.364;12.358;2022-08-01T23:44:47;100549.84;;;21.48;76.11
15382;BME280;7789;51.364;12.358;2022-08-01T23:50:03;100538.75;;;21.44;76.42
15382;BME280;7789;51.364;12.358;2022-08-01T23:55:20;100534.25;;;21.45;76.57
